Time;durP1;ratioP1;P1;durP2;ratioP2;P2;SDS_P1;SDS_P2;PMS_P1;PMS_P2;Temp;Humidity;BMP_temperature;BMP_pressure;BME280_temperature;BME280_humidity;BME280_pressure;Samples;Min_cycle;Max_cycle;Signal;HPM_P1;HPM_P2
2024/03/29 00:01:24;;;;;;;3.88;0.88;;;7.20;99.90;;;;;;5064641;28;20456;-55
2024/03/29 00:03:49;;;;;;;4.75;0.70;;;7.20;99.90;;;;;;5083154;28;20134;-60
2024/03/29 00:06:15;;;;;;;4.60;0.82;;;7.20;99.90;;;;;;5082270;28;20057;-57
2024/03/29 00:08:43;;;;;;;6.22;1.05;;;7.20;99.90;;;;;;5085276;28;20043;-56
2024/03/29 00:11:09;;;;;;;4.90;1.00;;;7.20;99.90;;;;;;5083371;28;20042;-53
2024/03/29 00:13:35;;;;;;;8.45;0.70;;;7.10;99.90;;;;;;5084199;28;20037;-57
2024/03/29 00:16:03;;;;;;;4.82;0.65;;;7.20;99.90;;;;;;5081156;28;20273;-56
2024/03/29 00:18:28;;;;;;;1.80;0.70;;;7.10;99.90;;;;;;5059010;28;20163;-60
2024/03/29 00:20:54;;;;;;;7.65;1.00;;;7.10;99.90;;;;;;5064088;28;20123;-55
2024/03/29 00:23:22;;;;;;;2.33;0.38;;;7.10;99.90;;;;;;5066931;28;20078;-55
2024/03/29 00:25:48;;;;;;;4.93;1.00;;;7.10;99.90;;;;;;5081292;28;20051;-49
2024/03/29 00:28:14;;;;;;;6.72;0.80;;;7.10;99.90;;;;;;5060802;28;20036;-51
2024/03/29 00:30:40;;;;;;;1.50;0.70;;;7.10;99.90;;;;;;5084583;28;20043;-59
2024/03/29 00:33:06;;;;;;;5.15;0.65;;;7.10;99.90;;;;;;5082901;28;20044;-64
2024/03/29 00:35:32;;;;;;;3.83;0.93;;;7.10;99.90;;;;;;5082921;28;20051;-56
2024/03/29 00:37:58;;;;;;;2.78;0.70;;;7.10;99.90;;;;;;5062657;28;20048;-61
2024/03/29 00:40:24;;;;;;;5.40;0.88;;;7.20;99.90;;;;;;5084023;28;20047;-55
2024/03/29 00:42:50;;;;;;;3.88;0.60;;;7.20;99.90;;;;;;5048393;28;20040;-59
2024/03/29 00:45:16;;;;;;;6.75;0.75;;;7.20;99.90;;;;;;5059648;28;20059;-56
2024/03/29 00:47:42;;;;;;;3.63;0.85;;;7.20;99.90;;;;;;5084525;28;20048;-61
2024/03/29 00:50:09;;;;;;;2.88;0.60;;;7.20;99.90;;;;;;5080718;28;20092;-59
2024/03/29 00:52:35;;;;;;;6.13;0.85;;;7.20;99.90;;;;;;5066984;28;20059;-60
2024/03/29 00:55:03;;;;;;;3.17;0.57;;;7.20;98.00;;;;;;5064269;28;20044;-56
2024/03/29 00:57:29;;;;;;;3.88;0.90;;;7.10;98.40;;;;;;5060939;28;20518;-58
2024/03/29 00:59:56;;;;;;;4.18;0.82;;;7.10;91.10;;;;;;5078170;28;20047;-59
2024/03/29 01:02:23;;;;;;;6.50;1.02;;;7.10;94.50;;;;;;5082503;28;20036;-48
2024/03/29 01:04:49;;;;;;;1.77;0.60;;;7.20;99.40;;;;;;5078065;28;20063;-53
2024/03/29 01:07:17;;;;;;;3.08;0.73;;;7.20;99.90;;;;;;5078567;28;20044;-54
2024/03/29 01:09:43;;;;;;;2.85;0.85;;;7.20;99.90;;;;;;5091305;28;20506;-57
2024/03/29 01:12:09;;;;;;;7.30;1.10;;;7.20;85.70;;;;;;5064171;28;20056;-63
2024/03/29 01:14:35;;;;;;;2.25;0.70;;;7.20;99.90;;;;;;5083519;28;20075;-58
2024/03/29 01:17:01;;;;;;;1.92;0.63;;;7.20;97.30;;;;;;5082488;28;20524;-58
2024/03/29 01:19:27;;;;;;;4.63;0.77;;;7.20;99.90;;;;;;5060022;28;20077;-51
2024/03/29 01:21:54;;;;;;;2.90;0.63;;;7.20;99.90;;;;;;5082822;28;20071;-48
2024/03/29 01:24:20;;;;;;;6.57;1.05;;;7.20;99.90;;;;;;5082832;28;20127;-56
2024/03/29 01:26:47;;;;;;;4.60;0.82;;;7.20;87.20;;;;;;5082514;28;20126;-56
2024/03/29 01:29:13;;;;;;;7.13;1.08;;;7.20;92.00;;;;;;5080053;28;20088;-52
2024/03/29 01:31:38;;;;;;;3.75;0.75;;;7.20;77.70;;;;;;5083794;28;20454;-54
2024/03/29 01:34:04;;;;;;;6.35;0.82;;;7.20;59.40;;;;;;5081145;28;20044;-54
2024/03/29 01:36:30;;;;;;;3.63;0.47;;;7.20;51.10;;;;;;5083139;28;20052;-56
2024/03/29 01:38:58;;;;;;;4.45;0.75;;;7.20;59.90;;;;;;5068311;28;20051;-52
2024/03/29 01:41:26;;;;;;;4.13;0.85;;;7.30;40.60;;;;;;5046593;28;20132;-51
2024/03/29 01:43:58;;;;;;;2.67;0.80;;;7.20;64.80;;;;;;5052024;28;20533;-57
2024/03/29 01:46:24;;;;;;;4.07;0.68;;;7.30;26.90;;;;;;5060383;28;20044;-50
2024/03/29 01:48:53;;;;;;;7.05;0.70;;;7.30;35.70;;;;;;5081157;28;20036;-59
2024/03/29 01:51:24;;;;;;;5.97;1.10;;;7.30;33.10;;;;;;5081294;28;20066;-58
2024/03/29 01:53:53;;;;;;;4.63;0.98;;;7.30;26.90;;;;;;5079452;28;20040;-53
2024/03/29 01:56:21;;;;;;;3.88;1.10;;;7.30;29.70;;;;;;5062943;28;20433;-56
2024/03/29 01:58:51;;;;;;;3.30;0.50;;;7.30;45.00;;;;;;5066976;28;20040;-58
2024/03/29 02:01:18;;;;;;;8.20;0.73;;;7.30;46.90;;;;;;5072484;28;20058;-55
2024/03/29 02:03:44;;;;;;;2.80;0.70;;;7.40;1.00;;;;;;5082195;28;20105;-51
2024/03/29 02:06:10;;;;;;;5.82;0.80;;;7.40;1.00;;;;;;5082304;28;20048;-56
2024/03/29 02:08:36;;;;;;;6.00;0.75;;;7.40;1.00;;;;;;5081553;28;20048;-56
2024/03/29 02:11:03;;;;;;;5.03;0.68;;;7.40;1.00;;;;;;5043771;28;20044;-56
2024/03/29 02:13:29;;;;;;;2.58;0.65;;;7.40;13.90;;;;;;5063702;28;20452;-61
2024/03/29 02:15:55;;;;;;;4.45;0.70;;;7.40;23.40;;;;;;5056924;28;20646;-52
2024/03/29 02:18:21;;;;;;;1.52;0.52;;;7.30;52.90;;;;;;5060708;28;20052;-57
2024/03/29 02:20:47;;;;;;;4.82;1.00;;;7.30;37.30;;;;;;5049775;28;20484;-60
2024/03/29 02:23:19;;;;;;;9.40;1.08;;;7.30;57.30;;;;;;5081477;28;20102;-56
2024/03/29 02:25:46;;;;;;;4.22;0.90;;;7.30;34.90;;;;;;5088674;28;20051;-60
2024/03/29 02:28:13;;;;;;;2.85;0.80;;;7.30;42.70;;;;;;5083654;28;20039;-60
2024/03/29 02:30:39;;;;;;;3.58;0.55;;;7.30;66.80;;;;;;5081130;28;20083;-57
2024/03/29 02:33:05;;;;;;;2.08;0.55;;;7.30;90.00;;;;;;5082047;28;20129;-62
2024/03/29 02:35:30;;;;;;;2.15;0.60;;;7.20;84.90;;;;;;5062655;28;20142;-56
2024/03/29 02:37:57;;;;;;;4.63;0.52;;;7.20;95.20;;;;;;5081805;28;20040;-57
2024/03/29 02:40:23;;;;;;;8.32;0.85;;;7.10;99.90;;;;;;5075040;28;20079;-61
2024/03/29 02:42:49;;;;;;;4.65;0.65;;;7.00;99.90;;;;;;5056546;28;20097;-60
2024/03/29 02:45:17;;;;;;;6.70;1.08;;;7.00;99.90;;;;;;5081839;28;20052;-51
2024/03/29 02:47:43;;;;;;;1.50;0.80;;;6.90;99.90;;;;;;5062824;28;20047;-55
2024/03/29 02:50:16;;;;;;;4.55;0.85;;;6.90;99.90;;;;;;5077792;28;20517;-59
2024/03/29 02:52:42;;;;;;;5.80;0.57;;;6.90;99.90;;;;;;5081277;28;20557;-56
2024/03/29 02:55:10;;;;;;;3.47;0.60;;;6.80;99.90;;;;;;5062314;28;20505;-59
2024/03/29 02:57:38;;;;;;;2.83;0.88;;;6.80;99.90;;;;;;5084289;28;20040;-49
2024/03/29 03:00:11;;;;;;;3.67;1.17;;;6.80;99.90;;;;;;5057353;28;20045;-56
2024/03/29 03:02:40;;;;;;;8.63;0.40;;;6.70;99.90;;;;;;5082036;28;20130;-48
2024/03/29 03:05:09;;;;;;;4.65;0.63;;;6.70;99.90;;;;;;5074228;28;20044;-61
2024/03/29 03:13:11;;;;;;;3.75;0.50;;;6.60;99.90;;;;;;5069184;28;20040;-58
2024/03/29 03:15:36;;;;;;;2.50;0.70;;;6.50;99.90;;;;;;5063231;28;20052;-60
2024/03/29 03:18:02;;;;;;;3.85;0.63;;;6.50;99.90;;;;;;5062681;28;20949;-52
2024/03/29 03:20:30;;;;;;;4.40;0.50;;;6.50;99.90;;;;;;5061844;28;20155;-57
2024/03/29 03:22:57;;;;;;;3.58;0.70;;;6.40;99.90;;;;;;5063523;28;20058;-60
2024/03/29 03:25:24;;;;;;;5.47;0.73;;;6.40;99.90;;;;;;5055854;28;20047;-52
2024/03/29 03:27:50;;;;;;;2.40;0.75;;;6.40;99.90;;;;;;5059812;28;20101;-55
2024/03/29 03:30:15;;;;;;;7.38;0.70;;;6.40;99.90;;;;;;5079642;28;20055;-52
2024/03/29 03:32:41;;;;;;;1.15;0.50;;;6.40;99.90;;;;;;5077994;28;20425;-53
2024/03/29 03:35:07;;;;;;;6.78;0.80;;;6.30;99.90;;;;;;5058919;28;20549;-51
2024/03/29 03:37:33;;;;;;;3.75;0.50;;;6.40;99.90;;;;;;5082509;28;20133;-58
2024/03/29 03:39:59;;;;;;;4.47;0.75;;;6.30;99.90;;;;;;5066010;28;20090;-62
2024/03/29 03:42:26;;;;;;;2.58;0.55;;;6.30;99.90;;;;;;5080050;28;20067;-49
2024/03/29 03:44:52;;;;;;;3.63;0.60;;;6.30;99.90;;;;;;5084678;28;20044;-57
2024/03/29 03:47:17;;;;;;;4.05;0.55;;;6.40;99.90;;;;;;5082572;28;20425;-59
2024/03/29 03:49:43;;;;;;;5.95;0.60;;;6.40;99.90;;;;;;5084648;28;20082;-61
2024/03/29 03:52:09;;;;;;;1.20;0.50;;;6.30;99.90;;;;;;5083884;28;20482;-50
2024/03/29 03:54:37;;;;;;;3.40;0.63;;;6.30;99.90;;;;;;5085106;28;20056;-52
2024/03/29 03:57:04;;;;;;;11.13;0.85;;;6.30;99.90;;;;;;5083860;28;20044;-47
2024/03/29 03:59:30;;;;;;;9.07;0.63;;;6.40;99.90;;;;;;5066043;28;20055;-62
2024/03/29 04:01:56;;;;;;;1.92;0.65;;;6.40;99.90;;;;;;5082930;28;20131;-47
2024/03/29 04:04:22;;;;;;;2.38;0.68;;;6.30;99.90;;;;;;5084243;28;20116;-55
2024/03/29 04:06:48;;;;;;;2.05;0.57;;;6.40;99.90;;;;;;5084634;28;20529;-59
2024/03/29 04:09:18;;;;;;;1.77;0.52;;;6.40;99.90;;;;;;5075755;28;20088;-56
2024/03/29 04:11:44;;;;;;;2.90;0.38;;;6.40;99.90;;;;;;5081750;28;20543;-55
2024/03/29 04:14:10;;;;;;;3.05;0.68;;;6.50;99.90;;;;;;5083689;28;20047;-58
2024/03/29 04:16:35;;;;;;;3.97;0.82;;;6.50;99.90;;;;;;5084206;28;20044;-58
2024/03/29 04:19:01;;;;;;;4.93;0.65;;;6.50;99.90;;;;;;5083114;28;20525;-59
2024/03/29 04:21:26;;;;;;;3.92;0.85;;;6.50;99.90;;;;;;5083367;28;20135;-62
2024/03/29 04:23:52;;;;;;;3.13;0.57;;;6.50;99.90;;;;;;5084821;28;20052;-57
2024/03/29 04:26:19;;;;;;;6.65;1.08;;;6.60;99.90;;;;;;5083188;28;20076;-54
2024/03/29 04:28:44;;;;;;;2.28;0.77;;;6.60;99.90;;;;;;5066163;28;20048;-49
2024/03/29 04:31:10;;;;;;;7.75;0.65;;;6.70;99.90;;;;;;5071523;28;20485;-57
2024/03/29 04:33:37;;;;;;;8.60;0.60;;;6.70;99.90;;;;;;5084358;28;20059;-59
2024/03/29 04:36:03;;;;;;;3.65;0.60;;;6.70;99.90;;;;;;5082473;28;20040;-58
2024/03/29 04:38:30;;;;;;;0.47;0.40;;;6.70;99.90;;;;;;5083850;28;20090;-55
2024/03/29 04:40:57;;;;;;;5.57;1.42;;;6.70;99.90;;;;;;5083209;28;20131;-54
2024/03/29 04:43:27;;;;;;;3.20;0.90;;;6.70;99.90;;;;;;5083315;28;20056;-63
2024/03/29 04:46:10;;;;;;;7.75;0.80;;;6.70;99.90;;;;;;5083507;28;20051;-47
2024/03/29 04:48:36;;;;;;;2.63;0.73;;;6.70;99.90;;;;;;5081980;28;20509;-57
2024/03/29 04:51:03;;;;;;;2.17;0.50;;;6.70;99.90;;;;;;5083711;28;20032;-57
2024/03/29 04:53:29;;;;;;;2.05;0.52;;;6.80;99.90;;;;;;5083001;28;20067;-47
2024/03/29 04:55:55;;;;;;;1.85;0.68;;;6.80;99.90;;;;;;5080696;28;20884;-55
2024/03/29 04:58:22;;;;;;;1.92;0.60;;;6.80;99.90;;;;;;5084050;28;20082;-48
2024/03/29 05:00:49;;;;;;;5.88;0.65;;;6.80;99.90;;;;;;5078831;28;20040;-56
2024/03/29 05:03:17;;;;;;;4.15;0.73;;;6.90;99.90;;;;;;5083734;28;20052;-58
2024/03/29 05:05:42;;;;;;;4.30;0.70;;;6.90;99.90;;;;;;5081783;28;20088;-52
2024/03/29 05:08:08;;;;;;;1.35;0.43;;;6.90;99.90;;;;;;5084179;28;20560;-56
2024/03/29 05:10:35;;;;;;;4.35;0.93;;;6.90;99.90;;;;;;5070381;28;20446;-51
2024/03/29 05:13:01;;;;;;;2.38;0.52;;;7.00;99.90;;;;;;5076697;28;20040;-59
2024/03/29 05:15:27;;;;;;;4.60;1.05;;;7.10;99.90;;;;;;5064835;28;20048;-51
2024/03/29 05:17:53;;;;;;;4.85;1.02;;;7.00;99.90;;;;;;5082966;28;20056;-56
2024/03/29 05:20:19;;;;;;;4.05;0.82;;;7.00;99.90;;;;;;5083017;28;20056;-53
2024/03/29 05:22:46;;;;;;;5.25;1.05;;;7.00;99.90;;;;;;5082202;28;20044;-60
2024/03/29 05:25:12;;;;;;;3.42;0.60;;;7.00;99.90;;;;;;5083631;28;20036;-51
2024/03/29 05:27:38;;;;;;;1.48;0.60;;;7.00;99.90;;;;;;5081084;28;20036;-59
2024/03/29 05:30:05;;;;;;;3.17;0.75;;;7.10;99.90;;;;;;5083338;28;20048;-57
2024/03/29 05:32:32;;;;;;;3.72;0.70;;;7.10;99.90;;;;;;5079370;28;20145;-60
2024/03/29 05:34:57;;;;;;;10.13;0.77;;;7.10;99.90;;;;;;5063167;28;20048;-60
2024/03/29 05:37:25;;;;;;;2.47;0.82;;;7.10;99.90;;;;;;5083577;28;20051;-58
2024/03/29 05:40:03;;;;;;;3.95;1.08;;;7.20;99.90;;;;;;5081675;28;20285;-59
2024/03/29 05:42:34;;;;;;;1.15;0.40;;;7.20;99.90;;;;;;5065763;28;20056;-52
2024/03/29 05:45:00;;;;;;;1.30;0.52;;;7.20;99.90;;;;;;5081151;28;20032;-60
2024/03/29 05:47:26;;;;;;;5.07;1.00;;;7.30;99.90;;;;;;5060054;28;20387;-57
2024/03/29 05:49:51;;;;;;;5.05;0.98;;;7.30;99.90;;;;;;5063224;28;20054;-57
2024/03/29 05:52:18;;;;;;;5.85;0.73;;;7.30;99.90;;;;;;5057249;28;20052;-57
2024/03/29 05:54:44;;;;;;;4.70;0.88;;;7.30;99.90;;;;;;5064321;28;20040;-63
2024/03/29 05:57:11;;;;;;;7.07;1.00;;;7.30;99.90;;;;;;5081937;28;20156;-58
2024/03/29 05:59:37;;;;;;;3.70;0.80;;;7.30;99.90;;;;;;5081903;28;20117;-51
2024/03/29 06:02:03;;;;;;;3.75;1.13;;;7.40;99.90;;;;;;5081910;28;20131;-51
2024/03/29 06:04:32;;;;;;;10.98;1.25;;;7.50;99.90;;;;;;5082773;28;20056;-54
2024/03/29 06:07:01;;;;;;;4.97;0.80;;;7.50;99.90;;;;;;5081402;28;20493;-59
2024/03/29 06:09:27;;;;;;;1.88;0.80;;;7.50;99.90;;;;;;5081888;28;20074;-58
2024/03/29 06:11:55;;;;;;;3.40;1.42;;;7.60;99.90;;;;;;5062134;28;20055;-55
2024/03/29 06:17:24;;;;;;;4.50;0.70;;;7.60;99.90;;;;;;5074890;28;20123;-59
2024/03/29 06:19:57;;;;;;;4.30;0.75;;;7.70;99.90;;;;;;5061849;28;20044;-57
2024/03/29 06:22:25;;;;;;;2.22;0.63;;;7.70;99.90;;;;;;5064390;28;20129;-56
2024/03/29 06:24:51;;;;;;;5.93;0.70;;;7.80;99.90;;;;;;5061408;28;20071;-54
2024/03/29 06:27:26;;;;;;;4.25;0.77;;;7.80;99.90;;;;;;5062756;28;20547;-52
2024/03/29 06:29:52;;;;;;;6.43;1.33;;;7.90;93.90;;;;;;5081052;28;20161;-60
2024/03/29 06:32:18;;;;;;;4.80;0.60;;;7.90;76.50;;;;;;5078358;28;20048;-56
2024/03/29 06:34:47;;;;;;;7.68;1.52;;;8.00;83.60;;;;;;5081621;28;20047;-55
2024/03/29 06:37:13;;;;;;;6.55;0.80;;;8.10;80.50;;;;;;5063060;28;20039;-48
2024/03/29 06:39:41;;;;;;;7.18;0.70;;;8.10;70.10;;;;;;5063623;28;20124;-55
2024/03/29 06:42:07;;;;;;;2.60;0.70;;;8.10;72.20;;;;;;5063432;28;20106;-59
2024/03/29 06:44:34;;;;;;;4.63;0.73;;;8.20;76.00;;;;;;5074983;28;20447;-61
2024/03/29 06:46:59;;;;;;;2.53;0.50;;;8.10;80.10;;;;;;5081557;28;20048;-57
2024/03/29 06:49:25;;;;;;;5.45;0.90;;;8.10;91.40;;;;;;5081436;28;20047;-58
2024/03/29 06:51:52;;;;;;;3.33;0.90;;;8.20;65.50;;;;;;5081083;28;20059;-59
2024/03/29 06:54:22;;;;;;;1.27;0.70;;;8.20;96.50;;;;;;5080677;28;20478;-55
2024/03/29 06:56:50;;;;;;;3.67;0.60;;;8.30;96.40;;;;;;5077319;28;20519;-56
2024/03/29 06:59:15;;;;;;;1.40;0.52;;;8.30;99.90;;;;;;5064028;28;20040;-60
2024/03/29 07:01:41;;;;;;;3.30;0.60;;;8.40;94.50;;;;;;5080830;28;20044;-58
2024/03/29 07:04:07;;;;;;;1.13;0.52;;;8.40;75.40;;;;;;5080955;28;20139;-52
2024/03/29 07:06:33;;;;;;;3.00;0.75;;;8.50;75.20;;;;;;5080135;28;20097;-57
2024/03/29 07:08:58;;;;;;;3.45;0.50;;;8.60;60.10;;;;;;5062127;28;20383;-59
2024/03/29 07:11:24;;;;;;;4.03;0.40;;;8.70;47.90;;;;;;5084787;28;20050;-54
2024/03/29 07:13:50;;;;;;;2.58;0.50;;;8.70;41.00;;;;;;5082935;28;20044;-61
2024/03/29 07:16:16;;;;;;;3.95;0.40;;;8.80;37.50;;;;;;5067031;28;20084;-59
2024/03/29 07:18:42;;;;;;;1.90;0.22;;;8.80;1.00;;;;;;5084052;28;20087;-57
2024/03/29 07:21:07;;;;;;;4.50;0.88;;;8.90;1.00;;;;;;5083523;28;20040;-57
2024/03/29 07:23:33;;;;;;;0.98;0.30;;;8.90;15.60;;;;;;5065908;28;20242;-63
2024/03/29 07:26:04;;;;;;;5.63;0.50;;;9.00;24.10;;;;;;5082834;28;20048;-53
2024/03/29 07:28:31;;;;;;;1.40;0.32;;;9.10;1.00;;;;;;5078278;28;20511;-59
2024/03/29 07:30:57;;;;;;;1.85;0.40;;;9.10;52.10;;;;;;5084557;28;20032;-55
2024/03/29 07:33:28;;;;;;;0.20;0.20;;;9.20;63.60;;;;;;5084690;28;20098;-58
2024/03/29 07:35:54;;;;;;;0.38;0.35;;;9.20;91.60;;;;;;5077464;28;20048;-60
2024/03/29 07:38:21;;;;;;;0.57;0.20;;;9.20;88.90;;;;;;5068508;28;20075;-61
2024/03/29 07:40:47;;;;;;;0.85;0.20;;;9.20;91.50;;;;;;5081495;28;20467;-53
2024/03/29 07:43:16;;;;;;;2.70;0.70;;;9.30;95.00;;;;;;5066995;28;20127;-62
2024/03/29 07:45:46;;;;;;;0.88;0.50;;;9.30;99.90;;;;;;5073665;28;20457;-61
2024/03/29 07:48:13;;;;;;;0.20;0.20;;;9.30;95.10;;;;;;5084483;28;20097;-61
2024/03/29 07:50:40;;;;;;;2.28;0.30;;;9.40;99.90;;;;;;5084157;28;20482;-54
2024/03/29 07:53:06;;;;;;;2.45;0.57;;;9.50;99.90;;;;;;5084786;28;20039;-58
2024/03/29 07:55:32;;;;;;;2.92;0.40;;;9.60;99.90;;;;;;5083573;28;20193;-61
2024/03/29 07:57:59;;;;;;;0.95;0.45;;;9.70;99.90;;;;;;5083881;28;20134;-60
2024/03/29 08:00:26;;;;;;;2.33;0.40;;;9.80;99.90;;;;;;5081874;28;20059;-60
2024/03/29 08:02:53;;;;;;;1.50;0.38;;;9.80;72.60;;;;;;5080327;28;20044;-63
2024/03/29 08:05:20;;;;;;;0.95;0.40;;;9.90;85.40;;;;;;5079766;28;20051;-58
2024/03/29 08:07:46;;;;;;;0.70;0.30;;;10.00;30.60;;;;;;5081478;28;20525;-58
2024/03/29 08:10:12;;;;;;;2.60;0.50;;;10.10;1.00;;;;;;5084255;28;20291;-54
2024/03/29 08:12:38;;;;;;;0.95;0.30;;;10.20;64.70;;;;;;5084999;28;20486;-55
2024/03/29 08:15:04;;;;;;;0.15;0.15;;;10.20;1.00;;;;;;5064636;28;20644;-58
2024/03/29 08:17:30;;;;;;;1.25;0.30;;;10.10;1.00;;;;;;5084373;28;20051;-51
2024/03/29 08:19:56;;;;;;;1.13;0.10;;;10.00;1.00;;;;;;5072093;28;20131;-58
2024/03/29 08:22:23;;;;;;;0.47;0.28;;;10.00;1.00;;;;;;5084250;28;20047;-56
2024/03/29 08:24:49;;;;;;;0.60;0.30;;;10.00;1.00;;;;;;5062333;28;20411;-52
2024/03/29 08:27:15;;;;;;;1.33;0.55;;;9.90;1.00;;;;;;5065731;28;20145;-57
2024/03/29 08:29:43;;;;;;;0.80;0.30;;;10.00;1.00;;;;;;5074000;28;20052;-57
2024/03/29 08:32:10;;;;;;;0.30;0.17;;;9.90;1.00;;;;;;5078646;28;20040;-58
2024/03/29 08:34:39;;;;;;;2.58;0.30;;;9.90;1.00;;;;;;5077242;28;20075;-59
2024/03/29 08:37:05;;;;;;;0.17;0.17;;;9.90;1.00;;;;;;5061216;28;20047;-62
2024/03/29 08:39:31;;;;;;;2.05;0.43;;;9.80;1.00;;;;;;5081845;28;20046;-56
2024/03/29 08:41:58;;;;;;;2.10;0.50;;;9.70;1.00;;;;;;5081648;28;20071;-56
2024/03/29 08:44:24;;;;;;;3.00;0.30;;;9.70;99.90;;;;;;5081185;28;20113;-60
2024/03/29 08:46:51;;;;;;;2.65;0.50;;;9.60;99.90;;;;;;5080947;28;20497;-53
2024/03/29 08:49:16;;;;;;;1.50;0.60;;;9.60;99.90;;;;;;5081584;28;20089;-56
2024/03/29 08:51:42;;;;;;;0.50;0.30;;;9.60;99.90;;;;;;5046484;28;20063;-46
2024/03/29 08:54:08;;;;;;;1.63;0.40;;;9.50;99.90;;;;;;5080798;28;20093;-49
2024/03/29 08:56:36;;;;;;;2.88;0.68;;;9.50;99.90;;;;;;5082490;28;20040;-57
2024/03/29 08:59:07;;;;;;;1.40;0.35;;;9.50;99.90;;;;;;5081498;28;20775;-48
2024/03/29 09:01:34;;;;;;;0.90;0.43;;;9.50;99.90;;;;;;5074629;28;20056;-55
2024/03/29 09:03:59;;;;;;;1.38;0.32;;;9.70;99.90;;;;;;5062838;28;20047;-49
2024/03/29 09:06:26;;;;;;;1.10;0.22;;;9.80;99.90;;;;;;5079895;28;20052;-57
2024/03/29 09:08:52;;;;;;;3.35;0.50;;;9.80;99.90;;;;;;5078235;28;20439;-59
2024/03/29 09:11:18;;;;;;;3.30;0.30;;;9.90;99.90;;;;;;5073426;28;20594;-58
2024/03/29 09:13:44;;;;;;;4.05;0.52;;;10.10;99.90;;;;;;5063636;28;20173;-58
2024/03/29 09:16:09;;;;;;;1.23;0.20;;;10.20;99.90;;;;;;5080311;28;20485;-53
2024/03/29 09:18:35;;;;;;;1.05;0.60;;;10.10;99.90;;;;;;5065167;28;20055;-55
2024/03/29 09:21:01;;;;;;;2.30;0.57;;;10.20;99.90;;;;;;5080904;28;20040;-62
2024/03/29 09:23:29;;;;;;;1.10;0.40;;;10.20;99.90;;;;;;5045389;28;20067;-55
2024/03/29 09:25:58;;;;;;;4.40;0.70;;;10.20;99.90;;;;;;5081559;28;20366;-59
2024/03/29 09:28:24;;;;;;;1.85;0.55;;;10.40;99.90;;;;;;5082633;28;20047;-59
2024/03/29 09:30:50;;;;;;;0.75;0.73;;;10.50;99.90;;;;;;5082332;28;20109;-63
2024/03/29 09:33:16;;;;;;;4.30;0.38;;;10.60;99.90;;;;;;5070057;28;20039;-59
2024/03/29 09:35:43;;;;;;;2.55;0.45;;;10.60;99.90;;;;;;5077142;28;20052;-58
2024/03/29 09:38:09;;;;;;;1.48;0.65;;;10.60;99.90;;;;;;5081838;28;20058;-60
2024/03/29 09:40:34;;;;;;;1.23;0.30;;;10.60;99.90;;;;;;5082661;28;20466;-60
2024/03/29 09:43:04;;;;;;;1.20;0.40;;;10.40;99.90;;;;;;5064285;28;20059;-54
2024/03/29 09:45:37;;;;;;;3.25;0.55;;;10.50;99.90;;;;;;5081908;28;20062;-58
2024/03/29 09:48:08;;;;;;;0.40;0.30;;;10.50;99.90;;;;;;5083296;28;20508;-51
2024/03/29 09:50:38;;;;;;;2.15;0.30;;;10.50;99.90;;;;;;5081875;28;20096;-56
2024/03/29 09:53:08;;;;;;;0.43;0.28;;;10.60;99.90;;;;;;5088159;28;20521;-55
2024/03/29 09:55:37;;;;;;;0.88;0.40;;;10.50;99.90;;;;;;5061949;28;20105;-53
2024/03/29 09:58:04;;;;;;;1.30;0.25;;;10.60;99.90;;;;;;5082487;28;20044;-58
2024/03/29 10:00:31;;;;;;;0.15;0.10;;;10.70;99.90;;;;;;5081964;28;20048;-57
2024/03/29 10:02:57;;;;;;;3.38;0.28;;;10.80;99.90;;;;;;5079349;28;20040;-59
2024/03/29 10:05:25;;;;;;;1.42;0.30;;;10.90;99.90;;;;;;5080519;28;20066;-59
2024/03/29 10:07:53;;;;;;;0.20;0.20;;;11.00;99.90;;;;;;5081332;28;20052;-57
2024/03/29 10:10:19;;;;;;;1.50;0.10;;;11.10;99.90;;;;;;5054462;28;20490;-57
2024/03/29 10:12:45;;;;;;;0.55;0.10;;;11.20;99.90;;;;;;5062050;28;20414;-52
2024/03/29 10:15:19;;;;;;;0.20;0.20;;;11.40;99.90;;;;;;5081799;28;20040;-52
2024/03/29 10:17:51;;;;;;;2.00;0.30;;;11.50;15.00;;;;;;5076534;28;20061;-61
2024/03/29 10:20:23;;;;;;;0.28;0.28;;;11.60;1.00;;;;;;5079505;28;20048;-58
2024/03/29 10:22:49;;;;;;;0.40;0.40;;;11.50;99.90;;;;;;5079992;28;20076;-61
2024/03/29 10:25:15;;;;;;;1.65;0.40;;;11.40;1.00;;;;;;5059660;28;20141;-51
2024/03/29 10:27:42;;;;;;;2.00;0.68;;;11.20;1.00;;;;;;5082649;28;20048;-62
2024/03/29 10:30:09;;;;;;;3.92;0.52;;;11.10;96.50;;;;;;5081055;28;20058;-53
2024/03/29 10:32:41;;;;;;;0.30;0.30;;;11.30;99.90;;;;;;5082137;28;20494;-51
2024/03/29 10:35:08;;;;;;;0.30;0.30;;;11.50;99.90;;;;;;5063555;28;20165;-56
2024/03/29 10:37:38;;;;;;;1.08;0.28;;;11.70;32.50;;;;;;5081173;28;20055;-61
2024/03/29 10:40:17;;;;;;;0.25;0.25;;;11.80;1.00;;;;;;5081138;28;20044;-59
2024/03/29 10:42:44;;;;;;;1.65;1.25;;;11.80;1.00;;;;;;5063597;28;20642;-56
2024/03/29 10:45:10;;;;;;;2.47;0.38;;;11.80;1.00;;;;;;5062056;28;20043;-49
2024/03/29 10:47:41;;;;;;;1.48;0.45;;;11.80;60.90;;;;;;5080801;28;20424;-62
2024/03/29 10:50:08;;;;;;;1.75;0.30;;;11.90;70.00;;;;;;5081243;28;20115;-52
2024/03/29 10:52:35;;;;;;;3.50;0.35;;;11.90;99.90;;;;;;5082465;28;20055;-52
2024/03/29 10:55:03;;;;;;;1.25;0.40;;;12.00;86.40;;;;;;5080866;28;20047;-58
2024/03/29 10:57:30;;;;;;;2.33;0.50;;;11.90;1.00;;;;;;5082223;28;20040;-63
2024/03/29 10:59:58;;;;;;;2.38;0.65;;;12.00;73.70;;;;;;5078191;28;20079;-58
2024/03/29 11:02:42;;;;;;;1.15;0.35;;;12.00;1.00;;;;;;5080548;28;20083;-58
2024/03/29 11:05:12;;;;;;;25.95;1.00;;;12.20;99.90;;;;;;5079155;28;20593;-51
2024/03/29 11:07:42;;;;;;;0.80;0.55;;;12.40;95.60;;;;;;5081538;28;20048;-52
2024/03/29 11:10:14;;;;;;;2.00;0.57;;;12.50;1.00;;;;;;5063758;28;20101;-58
2024/03/29 11:13:15;;;;;;;2.13;0.57;;;12.50;1.00;;;;;;5080371;28;20116;-62
2024/03/29 11:15:41;;;;;;;3.45;0.30;;;12.50;1.00;;;;;;5056306;28;20055;-56
2024/03/29 11:18:08;;;;;;;2.33;0.45;;;12.50;1.00;;;;;;5067888;28;20063;-54
2024/03/29 11:20:37;;;;;;;3.80;0.68;;;12.40;1.00;;;;;;5080135;28;20048;-50
2024/03/29 11:23:09;;;;;;;2.20;0.82;;;12.30;1.00;;;;;;5080878;28;20075;-57
2024/03/29 11:25:43;;;;;;;0.75;0.60;;;12.30;1.00;;;;;;5076998;28;20051;-60
2024/03/29 11:28:13;;;;;;;1.50;0.60;;;12.50;1.00;;;;;;5080835;28;20032;-57
2024/03/29 11:30:39;;;;;;;;;;;12.60;99.90;;;;;;5080694;28;20279;-60
2024/03/29 11:33:05;;;;;;;1.42;0.52;;;12.60;99.90;;;;;;5081466;28;20420;-59
2024/03/29 11:35:33;;;;;;;0.70;0.70;;;12.30;99.90;;;;;;5080387;28;20044;-52
2024/03/29 11:38:01;;;;;;;2.80;0.75;;;12.20;99.90;;;;;;5060238;28;20066;-60
2024/03/29 11:40:30;;;;;;;2.20;1.00;;;12.30;99.90;;;;;;5081485;28;20048;-48
2024/03/29 11:42:56;;;;;;;2.13;0.90;;;12.40;1.00;;;;;;5075259;28;20044;-54
2024/03/29 11:45:28;;;;;;;2.90;1.10;;;12.40;99.90;;;;;;5081728;28;20056;-58
2024/03/29 11:47:55;;;;;;;1.00;0.70;;;12.30;99.90;;;;;;5074488;28;20624;-59
2024/03/29 11:50:22;;;;;;;5.45;1.50;;;12.30;99.90;;;;;;5080550;28;20051;-60
2024/03/29 11:52:48;;;;;;;1.23;0.77;;;12.40;99.90;;;;;;5061511;28;20054;-53
2024/03/29 11:55:15;;;;;;;8.18;1.13;;;12.50;99.90;;;;;;5062033;28;20155;-51
2024/03/29 11:57:40;;;;;;;0.75;0.73;;;12.60;99.90;;;;;;5082932;28;20477;-53
2024/03/29 12:00:09;;;;;;;1.60;1.08;;;12.80;99.90;;;;;;5066216;28;20086;-51
2024/03/29 12:02:35;;;;;;;1.17;1.00;;;12.90;99.90;;;;;;5082600;28;20078;-57
2024/03/29 12:05:08;;;;;;;1.10;0.95;;;12.90;99.90;;;;;;5079631;28;20059;-54
2024/03/29 12:07:34;;;;;;;1.58;1.10;;;13.10;99.90;;;;;;5077358;28;20056;-60
2024/03/29 12:09:59;;;;;;;3.50;1.13;;;13.20;99.90;;;;;;5082861;28;20043;-50
2024/03/29 12:12:25;;;;;;;2.20;1.23;;;13.30;99.90;;;;;;5083576;28;20134;-59
2024/03/29 12:14:51;;;;;;;2.30;1.27;;;13.30;99.90;;;;;;5085041;28;20103;-52
2024/03/29 12:17:16;;;;;;;6.85;1.35;;;13.30;99.90;;;;;;5083286;28;20478;-55
2024/03/29 12:19:44;;;;;;;9.00;1.27;;;13.40;99.90;;;;;;5076747;28;20051;-51
2024/03/29 12:22:09;;;;;;;2.25;0.75;;;13.50;99.90;;;;;;5061077;28;20874;-58
2024/03/29 12:24:36;;;;;;;2.17;1.13;;;13.40;99.90;;;;;;5083316;28;20220;-57
2024/03/29 12:27:02;;;;;;;3.45;0.85;;;13.40;99.90;;;;;;5081314;28;20777;-58
2024/03/29 12:29:28;;;;;;;2.05;1.02;;;13.50;99.90;;;;;;5082012;28;20522;-62
2024/03/29 12:32:00;;;;;;;1.88;0.90;;;13.60;99.90;;;;;;5060123;28;20524;-58
2024/03/29 12:34:26;;;;;;;5.47;1.10;;;13.40;99.90;;;;;;5079847;28;20053;-57
2024/03/29 12:36:51;;;;;;;2.08;1.15;;;13.40;99.90;;;;;;5062041;28;20413;-54
2024/03/29 12:39:17;;;;;;;3.55;1.08;;;13.40;99.90;;;;;;5061598;28;20055;-60
2024/03/29 12:41:44;;;;;;;4.53;1.10;;;13.40;99.90;;;;;;5077914;28;20074;-52
2024/03/29 12:44:11;;;;;;;4.47;1.27;;;13.50;99.90;;;;;;5076251;28;20037;-60
2024/03/29 12:46:37;;;;;;;6.40;1.40;;;13.40;99.90;;;;;;5061156;28;20036;-57
2024/03/29 12:49:03;;;;;;;6.00;1.58;;;13.40;99.90;;;;;;5047920;28;20044;-55
2024/03/29 12:51:29;;;;;;;2.75;1.48;;;13.30;99.90;;;;;;5077300;28;20040;-58
2024/03/29 12:54:00;;;;;;;5.00;1.40;;;13.30;99.90;;;;;;5030147;28;20060;-60
2024/03/29 12:56:26;;;;;;;5.97;1.67;;;13.20;99.90;;;;;;5073895;28;20047;-50
2024/03/29 12:58:52;;;;;;;4.20;1.60;;;13.10;99.90;;;;;;5083615;28;20387;-62
2024/03/29 13:01:20;;;;;;;2.30;1.10;;;13.10;99.90;;;;;;5074362;23;20066;-63
2024/03/29 13:03:45;;;;;;;2.33;1.50;;;13.10;99.90;;;;;;4963731;28;20081;-63